This is the latest recevied weather packets stored in our database for station/object KB1WCR. If no packets are shown the sender has not sent any weather packets the latest 10 day(s).
| Time | Temp. | Humidity | Pressure | Rain* | Wind** | Luminosity | Snow |
|---|---|---|---|---|---|---|---|
| 1777658090 | 14.44° C | 55% | 1007.5 hPa | 0 mm | - | 762 W/m² | - |
| 1777657786 | 14.44° C | 56% | 1007.4 hPa | 0 mm | - | 806 W/m² | - |
| 1777657484 | 13.33° C | 57% | 1007.6 hPa | 0 mm | - | 770 W/m² | - |
| 1777657181 | 13.89° C | 55% | 1007.3 hPa | 0 mm | - | 297 W/m² | - |
| 1777656879 | 12.78° C | 59% | 1007.6 hPa | 0 mm | - | 503 W/m² | - |
| 1777656574 | 13.89° C | 57% | 1007.5 hPa | 0 mm | - | 307 W/m² | - |
| 1777656270 | 13.89° C | 56% | 1007.2 hPa | 0 mm | - | 328 W/m² | - |
| 1777655966 | 14.44° C | 57% | 1007.4 hPa | 0 mm | - | 438 W/m² | - |
| 1777655662 | 13.33° C | 64% | 1007.4 hPa | 0 mm | - | 929 W/m² | - |
| 1777655359 | 13.89° C | 57% | 1007.5 hPa | 0 mm | - | 274 W/m² | - |
| 1777655056 | 13.89° C | 60% | 1007.7 hPa | 0 mm | - | 982 W/m² | - |
| 1777654754 | 13.33° C | 59% | 1007.7 hPa | 0 mm | - | 713 W/m² | - |
| 1777654451 | 12.78° C | 63% | 1007.7 hPa | 0 mm | - | 546 W/m² | - |
| 1777654149 | 12.78° C | 64% | 1007.8 hPa | 0 mm | - | 285 W/m² | - |
| 1777653846 | 12.78° C | 64% | 1007.8 hPa | 0 mm | - | 251 W/m² | - |
| 1777653543 | 12.78° C | 63% | 1007.9 hPa | 0 mm | - | 230 W/m² | - |
| 1777653239 | 12.78° C | 62% | 1007.9 hPa | 0 mm | - | 229 W/m² | - |
| 1777652936 | 13.33° C | 60% | 1007.9 hPa | 0 mm | - | 315 W/m² | - |
| 1777652632 | 13.89° C | 62% | 1007.9 hPa | 0 mm | - | 526 W/m² | - |
| 1777652329 | 13.33° C | 61% | 1007.9 hPa | 0 mm | - | 882 W/m² | - |
| 1777652026 | 12.78° C | 65% | 1008.2 hPa | 0 mm | - | 963 W/m² | - |
| 1777651723 | 11.67° C | 69% | 1008.1 hPa | 0 mm | - | 297 W/m² | - |
| 1777651419 | 11.67° C | 65% | 1008.3 hPa | 0 mm | - | 285 W/m² | - |
| 1777651117 | 11.67° C | 67% | 1008.1 hPa | 0 mm | - | 277 W/m² | - |
| 1777650813 | 11.67° C | 68% | 1008.1 hPa | 0 mm | - | 281 W/m² | - |
* Rain latest hour (hover to see other rain measurements)
** Current wind speed in m/s (hover to see current wind gust speed)